sensor_id;sensor_type;location;lat;lon;timestamp;temperature;humidity
68274;SHT30;55104;47.356;19.448;2022-09-11T00:02:34;14.94;80.91
68274;SHT30;55104;47.356;19.448;2022-09-11T00:05:38;14.87;81.41
68274;SHT30;55104;47.356;19.448;2022-09-11T00:08:41;14.80;82.31
68274;SHT30;55104;47.356;19.448;2022-09-11T00:11:43;14.72;82.44
68274;SHT30;55104;47.356;19.448;2022-09-11T00:14:45;14.68;82.52
68274;SHT30;55104;47.356;19.448;2022-09-11T00:17:47;14.75;82.24
68274;SHT30;55104;47.356;19.448;2022-09-11T00:20:54;14.79;82.46
68274;SHT30;55104;47.356;19.448;2022-09-11T00:23:57;14.73;81.84
68274;SHT30;55104;47.356;19.448;2022-09-11T00:26:59;14.81;81.32
68274;SHT30;55104;47.356;19.448;2022-09-11T00:30:01;14.87;81.11
68274;SHT30;55104;47.356;19.448;2022-09-11T00:33:04;14.93;80.73
68274;SHT30;55104;47.356;19.448;2022-09-11T00:36:10;15.01;81.15
68274;SHT30;55104;47.356;19.448;2022-09-11T00:39:12;15.06;80.52
68274;SHT30;55104;47.356;19.448;2022-09-11T00:42:15;15.07;80.78
68274;SHT30;55104;47.356;19.448;2022-09-11T00:45:26;15.04;80.95
68274;SHT30;55104;47.356;19.448;2022-09-11T00:48:30;15.03;80.89
68274;SHT30;55104;47.356;19.448;2022-09-11T00:51:34;15.04;80.56
68274;SHT30;55104;47.356;19.448;2022-09-11T00:54:42;15.14;80.07
68274;SHT30;55104;47.356;19.448;2022-09-11T00:57:51;15.16;79.73
68274;SHT30;55104;47.356;19.448;2022-09-11T01:00:55;15.18;79.65
68274;SHT30;55104;47.356;19.448;2022-09-11T01:04:02;15.11;79.76
68274;SHT30;55104;47.356;19.448;2022-09-11T01:07:05;15.06;79.95
68274;SHT30;55104;47.356;19.448;2022-09-11T01:10:07;15.07;79.68
68274;SHT30;55104;47.356;19.448;2022-09-11T01:13:25;15.01;79.79
68274;SHT30;55104;47.356;19.448;2022-09-11T01:16:39;14.87;80.72
68274;SHT30;55104;47.356;19.448;2022-09-11T01:29:48;14.72;80.97
68274;SHT30;55104;47.356;19.448;2022-09-11T01:33:35;14.63;81.65
68274;SHT30;55104;47.356;19.448;2022-09-11T01:36:46;14.56;82.05
68274;SHT30;55104;47.356;19.448;2022-09-11T01:39:58;14.48;82.12
68274;SHT30;55104;47.356;19.448;2022-09-11T01:43:04;14.41;82.24
68274;SHT30;55104;47.356;19.448;2022-09-11T01:46:08;14.39;82.18
68274;SHT30;55104;47.356;19.448;2022-09-11T01:49:16;14.42;82.03
68274;SHT30;55104;47.356;19.448;2022-09-11T01:52:23;14.36;82.24
68274;SHT30;55104;47.356;19.448;2022-09-11T01:55:39;14.28;82.73
68274;SHT30;55104;47.356;19.448;2022-09-11T01:58:44;14.20;83.13
68274;SHT30;55104;47.356;19.448;2022-09-11T02:01:50;14.15;83.12
68274;SHT30;55104;47.356;19.448;2022-09-11T02:05:24;14.08;83.59
68274;SHT30;55104;47.356;19.448;2022-09-11T02:08:45;14.08;83.66
68274;SHT30;55104;47.356;19.448;2022-09-11T02:11:57;14.11;83.46
68274;SHT30;55104;47.356;19.448;2022-09-11T02:15:04;14.06;83.34
68274;SHT30;55104;47.356;19.448;2022-09-11T02:18:16;14.08;83.53
68274;SHT30;55104;47.356;19.448;2022-09-11T02:21:20;14.03;83.42
68274;SHT30;55104;47.356;19.448;2022-09-11T02:24:23;14.00;83.60
68274;SHT30;55104;47.356;19.448;2022-09-11T02:27:26;14.06;83.55
68274;SHT30;55104;47.356;19.448;2022-09-11T02:30:30;14.06;83.61
68274;SHT30;55104;47.356;19.448;2022-09-11T02:33:35;14.10;83.18
68274;SHT30;55104;47.356;19.448;2022-09-11T02:43:57;14.10;83.17
68274;SHT30;55104;47.356;19.448;2022-09-11T02:53:58;14.18;82.74
68274;SHT30;55104;47.356;19.448;2022-09-11T02:57:10;14.21;82.83
68274;SHT30;55104;47.356;19.448;2022-09-11T03:00:12;14.18;82.65
68274;SHT30;55104;47.356;19.448;2022-09-11T03:03:15;14.10;82.87
68274;SHT30;55104;47.356;19.448;2022-09-11T03:06:19;14.10;83.21
68274;SHT30;55104;47.356;19.448;2022-09-11T03:09:27;13.97;83.74
68274;SHT30;55104;47.356;19.448;2022-09-11T03:12:34;13.97;83.94
68274;SHT30;55104;47.356;19.448;2022-09-11T03:15:37;13.96;83.68
68274;SHT30;55104;47.356;19.448;2022-09-11T03:18:39;13.89;84.07
68274;SHT30;55104;47.356;19.448;2022-09-11T03:21:42;13.77;84.24
68274;SHT30;55104;47.356;19.448;2022-09-11T03:24:44;13.74;83.92
68274;SHT30;55104;47.356;19.448;2022-09-11T03:27:46;13.74;84.21
68274;SHT30;55104;47.356;19.448;2022-09-11T03:30:49;13.79;84.36
68274;SHT30;55104;47.356;19.448;2022-09-11T03:33:51;13.80;84.11
68274;SHT30;55104;47.356;19.448;2022-09-11T03:36:53;13.83;83.97
68274;SHT30;55104;47.356;19.448;2022-09-11T03:39:55;13.90;83.46
68274;SHT30;55104;47.356;19.448;2022-09-11T03:42:57;13.84;83.68
68274;SHT30;55104;47.356;19.448;2022-09-11T03:46:00;13.87;83.56
68274;SHT30;55104;47.356;19.448;2022-09-11T03:49:04;13.74;84.07
68274;SHT30;55104;47.356;19.448;2022-09-11T03:52:06;13.70;83.95
68274;SHT30;55104;47.356;19.448;2022-09-11T03:55:09;13.65;84.24
68274;SHT30;55104;47.356;19.448;2022-09-11T03:58:11;13.58;84.48
68274;SHT30;55104;47.356;19.448;2022-09-11T04:01:16;13.53;84.50
68274;SHT30;55104;47.356;19.448;2022-09-11T04:04:20;13.56;84.88
68274;SHT30;55104;47.356;19.448;2022-09-11T04:07:23;13.56;84.74
68274;SHT30;55104;47.356;19.448;2022-09-11T04:10:25;13.55;84.83
68274;SHT30;55104;47.356;19.448;2022-09-11T04:13:28;13.56;84.82
68274;SHT30;55104;47.356;19.448;2022-09-11T04:16:31;13.53;84.80
68274;SHT30;55104;47.356;19.448;2022-09-11T04:19:34;13.52;84.97
68274;SHT30;55104;47.356;19.448;2022-09-11T04:22:36;13.48;84.94
68274;SHT30;55104;47.356;19.448;2022-09-11T04:25:39;13.51;85.60
68274;SHT30;55104;47.356;19.448;2022-09-11T04:28:41;13.49;85.54
68274;SHT30;55104;47.356;19.448;2022-09-11T04:31:46;13.52;85.15
68274;SHT30;55104;47.356;19.448;2022-09-11T04:34:49;13.56;85.22
68274;SHT30;55104;47.356;19.448;2022-09-11T04:37:51;13.63;85.59
68274;SHT30;55104;47.356;19.448;2022-09-11T04:40:54;13.66;85.46
68274;SHT30;55104;47.356;19.448;2022-09-11T04:44:00;13.71;85.37
68274;SHT30;55104;47.356;19.448;2022-09-11T04:47:08;13.79;84.93
68274;SHT30;55104;47.356;19.448;2022-09-11T04:50:10;13.84;84.92
68274;SHT30;55104;47.356;19.448;2022-09-11T04:53:14;13.93;84.67
68274;SHT30;55104;47.356;19.448;2022-09-11T04:56:17;13.96;84.53
68274;SHT30;55104;47.356;19.448;2022-09-11T04:59:22;13.97;84.45
68274;SHT30;55104;47.356;19.448;2022-09-11T05:02:35;14.01;84.32
68274;SHT30;55104;47.356;19.448;2022-09-11T05:05:38;14.07;84.34
68274;SHT30;55104;47.356;19.448;2022-09-11T05:08:42;14.15;84.10
68274;SHT30;55104;47.356;19.448;2022-09-11T05:11:46;14.22;83.92
68274;SHT30;55104;47.356;19.448;2022-09-11T05:14:50;14.26;83.77
68274;SHT30;55104;47.356;19.448;2022-09-11T05:17:52;14.28;83.46
68274;SHT30;55104;47.356;19.448;2022-09-11T05:21:06;14.48;83.28
68274;SHT30;55104;47.356;19.448;2022-09-11T05:24:08;14.51;83.33
68274;SHT30;55104;47.356;19.448;2022-09-11T05:27:10;14.55;83.17
68274;SHT30;55104;47.356;19.448;2022-09-11T05:30:13;14.62;82.74
68274;SHT30;55104;47.356;19.448;2022-09-11T05:33:15;14.68;82.55
68274;SHT30;55104;47.356;19.448;2022-09-11T05:36:17;14.68;82.41
68274;SHT30;55104;47.356;19.448;2022-09-11T05:39:19;14.70;82.71
68274;SHT30;55104;47.356;19.448;2022-09-11T05:42:21;14.76;82.92
68274;SHT30;55104;47.356;19.448;2022-09-11T05:45:27;14.93;82.90
68274;SHT30;55104;47.356;19.448;2022-09-11T05:48:30;15.14;81.90
68274;SHT30;55104;47.356;19.448;2022-09-11T05:51:35;15.25;81.75
68274;SHT30;55104;47.356;19.448;2022-09-11T05:54:39;15.34;81.29
68274;SHT30;55104;47.356;19.448;2022-09-11T05:57:41;15.42;81.19
68274;SHT30;55104;47.356;19.448;2022-09-11T06:00:44;15.52;80.93
68274;SHT30;55104;47.356;19.448;2022-09-11T06:03:48;15.59;80.89
68274;SHT30;55104;47.356;19.448;2022-09-11T06:06:53;15.76;80.11
68274;SHT30;55104;47.356;19.448;2022-09-11T06:09:55;15.70;80.49
68274;SHT30;55104;47.356;19.448;2022-09-11T06:13:04;15.65;80.31
68274;SHT30;55104;47.356;19.448;2022-09-11T06:16:11;15.69;80.72
68274;SHT30;55104;47.356;19.448;2022-09-11T06:19:19;15.61;80.96
68274;SHT30;55104;47.356;19.448;2022-09-11T06:22:21;15.59;81.75
68274;SHT30;55104;47.356;19.448;2022-09-11T06:25:26;15.73;81.44
68274;SHT30;55104;47.356;19.448;2022-09-11T06:28:28;15.89;80.32
68274;SHT30;55104;47.356;19.448;2022-09-11T06:31:32;16.10;79.17
68274;SHT30;55104;47.356;19.448;2022-09-11T06:34:35;16.38;79.08
68274;SHT30;55104;47.356;19.448;2022-09-11T06:37:41;16.71;77.72
68274;SHT30;55104;47.356;19.448;2022-09-11T06:40:43;16.92;77.00
68274;SHT30;55104;47.356;19.448;2022-09-11T06:43:46;16.93;76.35
68274;SHT30;55104;47.356;19.448;2022-09-11T06:46:48;16.87;77.18
68274;SHT30;55104;47.356;19.448;2022-09-11T06:49:51;16.87;77.28
68274;SHT30;55104;47.356;19.448;2022-09-11T06:53:12;17.00;76.46
68274;SHT30;55104;47.356;19.448;2022-09-11T06:56:22;17.18;76.14
68274;SHT30;55104;47.356;19.448;2022-09-11T06:59:25;17.32;75.32
68274;SHT30;55104;47.356;19.448;2022-09-11T07:02:27;17.35;76.03
68274;SHT30;55104;47.356;19.448;2022-09-11T07:05:29;17.34;75.46
68274;SHT30;55104;47.356;19.448;2022-09-11T07:08:34;17.49;75.20
68274;SHT30;55104;47.356;19.448;2022-09-11T07:11:36;17.41;74.37
68274;SHT30;55104;47.356;19.448;2022-09-11T07:14:39;17.51;74.57
68274;SHT30;55104;47.356;19.448;2022-09-11T07:17:50;17.59;73.95
68274;SHT30;55104;47.356;19.448;2022-09-11T07:20:53;17.78;73.37
68274;SHT30;55104;47.356;19.448;2022-09-11T07:23:58;17.96;72.76
68274;SHT30;55104;47.356;19.448;2022-09-11T07:27:06;18.07;72.82
68274;SHT30;55104;47.356;19.448;2022-09-11T07:30:10;18.24;72.69
68274;SHT30;55104;47.356;19.448;2022-09-11T07:33:16;18.30;72.43
68274;SHT30;55104;47.356;19.448;2022-09-11T07:36:20;18.48;70.96
68274;SHT30;55104;47.356;19.448;2022-09-11T07:39:25;18.62;70.35
68274;SHT30;55104;47.356;19.448;2022-09-11T07:42:33;18.91;70.72
68274;SHT30;55104;47.356;19.448;2022-09-11T07:45:35;19.04;69.49
68274;SHT30;55104;47.356;19.448;2022-09-11T07:48:39;19.26;68.65
68274;SHT30;55104;47.356;19.448;2022-09-11T07:51:43;19.35;68.75
68274;SHT30;55104;47.356;19.448;2022-09-11T07:54:50;19.38;67.59
68274;SHT30;55104;47.356;19.448;2022-09-11T07:57:54;19.61;68.63
68274;SHT30;55104;47.356;19.448;2022-09-11T08:00:57;19.86;66.74
68274;SHT30;55104;47.356;19.448;2022-09-11T08:04:06;19.82;66.46
68274;SHT30;55104;47.356;19.448;2022-09-11T08:07:09;19.81;65.48
68274;SHT30;55104;47.356;19.448;2022-09-11T08:10:11;20.03;65.25
68274;SHT30;55104;47.356;19.448;2022-09-11T08:13:28;20.10;65.10
68274;SHT30;55104;47.356;19.448;2022-09-11T08:16:32;20.26;65.61
68274;SHT30;55104;47.356;19.448;2022-09-11T08:19:37;20.30;65.44
68274;SHT30;55104;47.356;19.448;2022-09-11T08:22:39;20.55;66.02
68274;SHT30;55104;47.356;19.448;2022-09-11T08:25:42;20.58;63.37
68274;SHT30;55104;47.356;19.448;2022-09-11T08:28:45;20.50;63.97
68274;SHT30;55104;47.356;19.448;2022-09-11T08:31:49;20.58;62.73
68274;SHT30;55104;47.356;19.448;2022-09-11T08:34:52;20.68;61.90
68274;SHT30;55104;47.356;19.448;2022-09-11T08:37:56;20.84;61.52
68274;SHT30;55104;47.356;19.448;2022-09-11T08:44:19;20.76;62.57
68274;SHT30;55104;47.356;19.448;2022-09-11T08:47:27;20.95;62.04
68274;SHT30;55104;47.356;19.448;2022-09-11T08:50:38;20.71;61.13
68274;SHT30;55104;47.356;19.448;2022-09-11T08:53:46;20.89;62.12
68274;SHT30;55104;47.356;19.448;2022-09-11T08:56:50;20.82;62.03
68274;SHT30;55104;47.356;19.448;2022-09-11T09:03:53;20.86;61.33
68274;SHT30;55104;47.356;19.448;2022-09-11T09:20:33;21.13;60.51
68274;SHT30;55104;47.356;19.448;2022-09-11T09:23:48;20.98;61.30
68274;SHT30;55104;47.356;19.448;2022-09-11T09:26:54;21.18;61.57
68274;SHT30;55104;47.356;19.448;2022-09-11T09:30:02;21.54;60.12
68274;SHT30;55104;47.356;19.448;2022-09-11T09:37:12;21.77;59.75
68274;SHT30;55104;47.356;19.448;2022-09-11T09:40:16;21.86;58.44
68274;SHT30;55104;47.356;19.448;2022-09-11T09:46:47;21.99;58.58
68274;SHT30;55104;47.356;19.448;2022-09-11T09:49:52;22.05;57.88
68274;SHT30;55104;47.356;19.448;2022-09-11T09:53:03;21.91;57.68
68274;SHT30;55104;47.356;19.448;2022-09-11T09:56:13;21.81;58.15
68274;SHT30;55104;47.356;19.448;2022-09-11T10:02:56;21.98;58.10
68274;SHT30;55104;47.356;19.448;2022-09-11T10:05:59;21.79;58.01
68274;SHT30;55104;47.356;19.448;2022-09-11T10:09:01;21.36;58.83
68274;SHT30;55104;47.356;19.448;2022-09-11T10:12:06;21.19;60.54
68274;SHT30;55104;47.356;19.448;2022-09-11T10:15:19;21.39;59.75
68274;SHT30;55104;47.356;19.448;2022-09-11T10:21:37;21.40;59.24
68274;SHT30;55104;47.356;19.448;2022-09-11T10:24:41;20.98;57.86
68274;SHT30;55104;47.356;19.448;2022-09-11T10:30:59;22.13;56.04
68274;SHT30;55104;47.356;19.448;2022-09-11T10:34:03;22.29;53.84
68274;SHT30;55104;47.356;19.448;2022-09-11T10:40:20;22.77;54.89
68274;SHT30;55104;47.356;19.448;2022-09-11T10:43:31;22.96;54.08
68274;SHT30;55104;47.356;19.448;2022-09-11T10:46:39;23.11;53.77
68274;SHT30;55104;47.356;19.448;2022-09-11T10:49:43;22.96;53.01
68274;SHT30;55104;47.356;19.448;2022-09-11T10:55:59;23.32;52.08
68274;SHT30;55104;47.356;19.448;2022-09-11T10:59:10;23.43;51.91
68274;SHT30;55104;47.356;19.448;2022-09-11T11:02:18;23.59;51.19
68274;SHT30;55104;47.356;19.448;2022-09-11T11:09:22;24.01;50.57
68274;SHT30;55104;47.356;19.448;2022-09-11T11:19:35;24.21;50.03
68274;SHT30;55104;47.356;19.448;2022-09-11T11:30:16;21.31;65.51
68274;SHT30;55104;47.356;19.448;2022-09-11T11:33:51;20.06;71.14
68274;SHT30;55104;47.356;19.448;2022-09-11T11:37:14;19.59;73.97
68274;SHT30;55104;47.356;19.448;2022-09-11T11:43:27;19.48;74.92
68274;SHT30;55104;47.356;19.448;2022-09-11T11:46:46;19.57;73.54
68274;SHT30;55104;47.356;19.448;2022-09-11T11:50:02;19.75;75.10
68274;SHT30;55104;47.356;19.448;2022-09-11T11:56:51;20.16;75.19
68274;SHT30;55104;47.356;19.448;2022-09-11T12:00:04;20.20;73.79
68274;SHT30;55104;47.356;19.448;2022-09-11T12:03:29;20.47;74.23
68274;SHT30;55104;47.356;19.448;2022-09-11T12:06:33;20.48;73.05
68274;SHT30;55104;47.356;19.448;2022-09-11T12:09:36;20.69;70.44
68274;SHT30;55104;47.356;19.448;2022-09-11T12:12:51;20.64;68.26
68274;SHT30;55104;47.356;19.448;2022-09-11T12:16:17;20.69;67.90
68274;SHT30;55104;47.356;19.448;2022-09-11T12:19:22;20.67;68.64
68274;SHT30;55104;47.356;19.448;2022-09-11T12:22:34;20.84;70.02
68274;SHT30;55104;47.356;19.448;2022-09-11T12:25:48;20.78;69.68
68274;SHT30;55104;47.356;19.448;2022-09-11T12:38:48;20.40;68.97
68274;SHT30;55104;47.356;19.448;2022-09-11T12:41:51;19.95;69.54
68274;SHT30;55104;47.356;19.448;2022-09-11T12:48:02;20.02;66.73
68274;SHT30;55104;47.356;19.448;2022-09-11T12:51:15;20.61;66.45
68274;SHT30;55104;47.356;19.448;2022-09-11T12:54:26;20.72;65.89
68274;SHT30;55104;47.356;19.448;2022-09-11T12:57:31;20.63;63.88
68274;SHT30;55104;47.356;19.448;2022-09-11T13:00:39;20.67;63.46
68274;SHT30;55104;47.356;19.448;2022-09-11T13:06:53;20.54;66.45
68274;SHT30;55104;47.356;19.448;2022-09-11T13:10:03;20.45;69.21
68274;SHT30;55104;47.356;19.448;2022-09-11T13:16:35;19.97;72.78
68274;SHT30;55104;47.356;19.448;2022-09-11T13:19:45;19.86;74.21
68274;SHT30;55104;47.356;19.448;2022-09-11T13:22:48;19.81;73.95
68274;SHT30;55104;47.356;19.448;2022-09-11T13:25:59;19.74;72.15
68274;SHT30;55104;47.356;19.448;2022-09-11T13:29:02;19.58;72.22
68274;SHT30;55104;47.356;19.448;2022-09-11T13:32:06;19.59;69.23
68274;SHT30;55104;47.356;19.448;2022-09-11T13:35:15;19.71;69.23
68274;SHT30;55104;47.356;19.448;2022-09-11T13:38:21;19.90;67.28
68274;SHT30;55104;47.356;19.448;2022-09-11T13:41:30;20.08;64.85
68274;SHT30;55104;47.356;19.448;2022-09-11T13:44:45;20.41;64.41
68274;SHT30;55104;47.356;19.448;2022-09-11T13:47:48;20.41;64.66
68274;SHT30;55104;47.356;19.448;2022-09-11T13:50:50;19.99;65.80
68274;SHT30;55104;47.356;19.448;2022-09-11T13:54:15;19.86;66.41
68274;SHT30;55104;47.356;19.448;2022-09-11T13:57:25;19.79;67.78
68274;SHT30;55104;47.356;19.448;2022-09-11T14:00:43;20.10;66.77
68274;SHT30;55104;47.356;19.448;2022-09-11T14:03:46;20.45;66.78
68274;SHT30;55104;47.356;19.448;2022-09-11T14:06:49;20.67;66.26
68274;SHT30;55104;47.356;19.448;2022-09-11T14:10:06;20.96;63.67
68274;SHT30;55104;47.356;19.448;2022-09-11T14:16:36;21.14;63.58
68274;SHT30;55104;47.356;19.448;2022-09-11T14:19:41;21.22;63.47
68274;SHT30;55104;47.356;19.448;2022-09-11T14:22:43;21.19;63.05
68274;SHT30;55104;47.356;19.448;2022-09-11T14:26:14;21.19;64.41
68274;SHT30;55104;47.356;19.448;2022-09-11T14:29:32;21.29;63.36
68274;SHT30;55104;47.356;19.448;2022-09-11T14:32:37;21.46;63.80
68274;SHT30;55104;47.356;19.448;2022-09-11T14:35:40;21.40;63.40
68274;SHT30;55104;47.356;19.448;2022-09-11T14:38:42;21.40;63.04
68274;SHT30;55104;47.356;19.448;2022-09-11T14:41:44;21.47;63.95
68274;SHT30;55104;47.356;19.448;2022-09-11T14:44:47;21.37;62.68
68274;SHT30;55104;47.356;19.448;2022-09-11T14:47:49;21.20;62.54
68274;SHT30;55104;47.356;19.448;2022-09-11T14:50:51;21.26;62.60
68274;SHT30;55104;47.356;19.448;2022-09-11T14:53:55;21.39;61.97
68274;SHT30;55104;47.356;19.448;2022-09-11T14:56:58;21.50;62.32
68274;SHT30;55104;47.356;19.448;2022-09-11T15:00:02;21.29;62.66
68274;SHT30;55104;47.356;19.448;2022-09-11T15:03:05;21.40;62.07
68274;SHT30;55104;47.356;19.448;2022-09-11T15:06:12;21.10;62.52
68274;SHT30;55104;47.356;19.448;2022-09-11T15:09:16;21.00;62.02
68274;SHT30;55104;47.356;19.448;2022-09-11T15:12:19;20.75;62.98
68274;SHT30;55104;47.356;19.448;2022-09-11T15:15:23;20.67;63.96
68274;SHT30;55104;47.356;19.448;2022-09-11T15:18:25;20.59;64.60
68274;SHT30;55104;47.356;19.448;2022-09-11T15:21:28;20.45;65.31
68274;SHT30;55104;47.356;19.448;2022-09-11T15:24:36;20.44;65.42
68274;SHT30;55104;47.356;19.448;2022-09-11T15:27:38;20.48;63.47
68274;SHT30;55104;47.356;19.448;2022-09-11T15:30:40;20.43;61.36
68274;SHT30;55104;47.356;19.448;2022-09-11T15:33:48;20.34;62.82
68274;SHT30;55104;47.356;19.448;2022-09-11T15:36:50;20.34;63.41
68274;SHT30;55104;47.356;19.448;2022-09-11T15:39:53;20.44;62.29
68274;SHT30;55104;47.356;19.448;2022-09-11T15:42:56;20.38;61.68
68274;SHT30;55104;47.356;19.448;2022-09-11T15:45:58;20.50;60.95
68274;SHT30;55104;47.356;19.448;2022-09-11T15:49:00;20.50;59.72
68274;SHT30;55104;47.356;19.448;2022-09-11T15:52:02;20.55;61.07
68274;SHT30;55104;47.356;19.448;2022-09-11T15:55:05;20.63;61.21
68274;SHT30;55104;47.356;19.448;2022-09-11T15:58:07;20.61;61.05
68274;SHT30;55104;47.356;19.448;2022-09-11T16:01:27;20.61;61.38
68274;SHT30;55104;47.356;19.448;2022-09-11T16:04:29;20.54;62.10
68274;SHT30;55104;47.356;19.448;2022-09-11T16:07:33;20.47;62.48
68274;SHT30;55104;47.356;19.448;2022-09-11T16:10:36;20.21;63.33
68274;SHT30;55104;47.356;19.448;2022-09-11T16:13:39;20.09;64.38
68274;SHT30;55104;47.356;19.448;2022-09-11T16:16:41;20.02;65.42
68274;SHT30;55104;47.356;19.448;2022-09-11T16:19:43;19.85;65.64
68274;SHT30;55104;47.356;19.448;2022-09-11T16:22:45;19.81;66.08
68274;SHT30;55104;47.356;19.448;2022-09-11T16:25:47;19.68;66.78
68274;SHT30;55104;47.356;19.448;2022-09-11T16:28:50;19.50;68.01
68274;SHT30;55104;47.356;19.448;2022-09-11T16:31:54;19.32;68.40
68274;SHT30;55104;47.356;19.448;2022-09-11T16:34:57;19.27;68.61
68274;SHT30;55104;47.356;19.448;2022-09-11T16:38:00;19.20;69.29
68274;SHT30;55104;47.356;19.448;2022-09-11T16:41:04;19.04;70.26
68274;SHT30;55104;47.356;19.448;2022-09-11T16:44:12;18.93;70.81
68274;SHT30;55104;47.356;19.448;2022-09-11T16:47:15;18.81;71.33
68274;SHT30;55104;47.356;19.448;2022-09-11T16:50:17;18.71;71.81
68274;SHT30;55104;47.356;19.448;2022-09-11T16:53:24;18.55;72.30
68274;SHT30;55104;47.356;19.448;2022-09-11T16:56:26;18.49;73.49
68274;SHT30;55104;47.356;19.448;2022-09-11T16:59:28;18.52;73.00
68274;SHT30;55104;47.356;19.448;2022-09-11T17:02:32;18.51;71.22
68274;SHT30;55104;47.356;19.448;2022-09-11T17:05:35;18.51;70.89
68274;SHT30;55104;47.356;19.448;2022-09-11T17:08:37;18.55;70.54
68274;SHT30;55104;47.356;19.448;2022-09-11T17:11:40;18.51;69.52
68274;SHT30;55104;47.356;19.448;2022-09-11T17:14:42;18.55;69.43
68274;SHT30;55104;47.356;19.448;2022-09-11T17:17:44;18.45;69.43
68274;SHT30;55104;47.356;19.448;2022-09-11T17:20:46;18.41;69.55
68274;SHT30;55104;47.356;19.448;2022-09-11T17:23:50;18.31;69.63
68274;SHT30;55104;47.356;19.448;2022-09-11T17:26:52;18.24;69.82
68274;SHT30;55104;47.356;19.448;2022-09-11T17:29:56;18.13;69.61
68274;SHT30;55104;47.356;19.448;2022-09-11T17:32:58;18.04;70.26
68274;SHT30;55104;47.356;19.448;2022-09-11T17:36:04;18.07;70.13
68274;SHT30;55104;47.356;19.448;2022-09-11T17:39:07;17.99;70.77
68274;SHT30;55104;47.356;19.448;2022-09-11T17:42:10;17.94;70.94
68274;SHT30;55104;47.356;19.448;2022-09-11T17:45:14;17.85;71.37
68274;SHT30;55104;47.356;19.448;2022-09-11T17:48:18;17.71;72.18
68274;SHT30;55104;47.356;19.448;2022-09-11T17:51:22;17.59;72.59
68274;SHT30;55104;47.356;19.448;2022-09-11T17:54:25;17.58;72.54
68274;SHT30;55104;47.356;19.448;2022-09-11T17:57:29;17.55;72.96
68274;SHT30;55104;47.356;19.448;2022-09-11T18:00:33;17.48;73.35
68274;SHT30;55104;47.356;19.448;2022-09-11T18:03:35;17.38;73.94
68274;SHT30;55104;47.356;19.448;2022-09-11T18:06:38;17.45;73.93
68274;SHT30;55104;47.356;19.448;2022-09-11T18:09:40;17.38;74.05
68274;SHT30;55104;47.356;19.448;2022-09-11T18:12:42;17.35;74.10
68274;SHT30;55104;47.356;19.448;2022-09-11T18:15:44;17.31;74.86
68274;SHT30;55104;47.356;19.448;2022-09-11T18:18:47;17.24;75.10
68274;SHT30;55104;47.356;19.448;2022-09-11T18:21:49;17.30;74.85
68274;SHT30;55104;47.356;19.448;2022-09-11T18:24:51;17.32;74.51
68274;SHT30;55104;47.356;19.448;2022-09-11T18:27:53;17.28;74.39
68274;SHT30;55104;47.356;19.448;2022-09-11T18:31:05;17.21;74.72
68274;SHT30;55104;47.356;19.448;2022-09-11T18:34:09;17.07;75.13
68274;SHT30;55104;47.356;19.448;2022-09-11T18:37:11;16.99;75.43
68274;SHT30;55104;47.356;19.448;2022-09-11T18:40:13;16.94;75.37
68274;SHT30;55104;47.356;19.448;2022-09-11T18:43:16;16.90;75.62
68274;SHT30;55104;47.356;19.448;2022-09-11T18:46:18;16.86;76.02
68274;SHT30;55104;47.356;19.448;2022-09-11T18:49:21;16.82;76.39
68274;SHT30;55104;47.356;19.448;2022-09-11T18:52:23;16.86;76.43
68274;SHT30;55104;47.356;19.448;2022-09-11T18:55:27;16.80;76.66
68274;SHT30;55104;47.356;19.448;2022-09-11T18:58:31;16.80;76.95
68274;SHT30;55104;47.356;19.448;2022-09-11T19:01:33;16.80;77.30
68274;SHT30;55104;47.356;19.448;2022-09-11T19:04:36;16.86;77.38
68274;SHT30;55104;47.356;19.448;2022-09-11T19:07:43;16.90;77.52
68274;SHT30;55104;47.356;19.448;2022-09-11T19:10:47;16.93;77.70
68274;SHT30;55104;47.356;19.448;2022-09-11T19:13:51;16.90;77.91
68274;SHT30;55104;47.356;19.448;2022-09-11T19:16:53;17.04;77.70
68274;SHT30;55104;47.356;19.448;2022-09-11T19:19:55;16.99;78.15
68274;SHT30;55104;47.356;19.448;2022-09-11T19:22:58;17.02;78.43
68274;SHT30;55104;47.356;19.448;2022-09-11T19:26:09;16.94;79.49
68274;SHT30;55104;47.356;19.448;2022-09-11T19:29:12;16.93;79.60
68274;SHT30;55104;47.356;19.448;2022-09-11T19:32:16;16.94;80.17
68274;SHT30;55104;47.356;19.448;2022-09-11T19:35:18;16.94;80.29
68274;SHT30;55104;47.356;19.448;2022-09-11T19:38:21;16.93;80.53
68274;SHT30;55104;47.356;19.448;2022-09-11T19:41:25;16.89;80.71
68274;SHT30;55104;47.356;19.448;2022-09-11T19:44:28;16.87;80.54
68274;SHT30;55104;47.356;19.448;2022-09-11T19:47:34;16.87;80.61
68274;SHT30;55104;47.356;19.448;2022-09-11T19:50:41;16.83;80.56
68274;SHT30;55104;47.356;19.448;2022-09-11T19:53:43;16.77;80.47
68274;SHT30;55104;47.356;19.448;2022-09-11T19:56:46;16.76;80.15
68274;SHT30;55104;47.356;19.448;2022-09-11T19:59:47;16.71;80.31
68274;SHT30;55104;47.356;19.448;2022-09-11T20:02:49;16.62;80.23
68274;SHT30;55104;47.356;19.448;2022-09-11T20:05:52;16.55;80.44
68274;SHT30;55104;47.356;19.448;2022-09-11T20:08:55;16.51;80.42
68274;SHT30;55104;47.356;19.448;2022-09-11T20:12:17;16.51;80.71
68274;SHT30;55104;47.356;19.448;2022-09-11T20:15:19;16.49;80.44
68274;SHT30;55104;47.356;19.448;2022-09-11T20:18:21;16.47;80.42
68274;SHT30;55104;47.356;19.448;2022-09-11T20:21:23;16.42;80.76
68274;SHT30;55104;47.356;19.448;2022-09-11T20:24:25;16.29;80.78
68274;SHT30;55104;47.356;19.448;2022-09-11T20:27:27;16.27;80.95
68274;SHT30;55104;47.356;19.448;2022-09-11T20:30:30;16.29;80.56
68274;SHT30;55104;47.356;19.448;2022-09-11T20:33:33;16.21;80.45
68274;SHT30;55104;47.356;19.448;2022-09-11T20:36:35;16.24;80.36
68274;SHT30;55104;47.356;19.448;2022-09-11T20:39:37;16.14;81.18
68274;SHT30;55104;47.356;19.448;2022-09-11T20:42:40;16.10;81.11
68274;SHT30;55104;47.356;19.448;2022-09-11T20:45:42;16.03;81.38
68274;SHT30;55104;47.356;19.448;2022-09-11T20:48:49;15.93;81.74
68274;SHT30;55104;47.356;19.448;2022-09-11T20:51:51;15.80;81.79
68274;SHT30;55104;47.356;19.448;2022-09-11T20:54:53;15.82;81.97
68274;SHT30;55104;47.356;19.448;2022-09-11T20:57:55;15.86;81.36
68274;SHT30;55104;47.356;19.448;2022-09-11T21:00:57;15.74;81.19
68274;SHT30;55104;47.356;19.448;2022-09-11T21:04:02;15.76;81.23
68274;SHT30;55104;47.356;19.448;2022-09-11T21:07:05;15.70;81.02
68274;SHT30;55104;47.356;19.448;2022-09-11T21:10:07;15.58;81.48